Time;durP1;ratioP1;P1;durP2;ratioP2;P2;SDS_P1;SDS_P2;PMS_P1;PMS_P2;Temp;Humidity;BMP_temperature;BMP_pressure;BME280_temperature;BME280_humidity;BME280_pressure;Samples;Min_cycle;Max_cycle;Signal;HPM_P1;HPM_P2
2023/04/26 00:02:10;;;;;;;2.97;0.60;;;;;;;12.35;65.64;94027.53;4999077;28;20022;-89
2023/04/26 00:04:35;;;;;;;2.65;1.30;;;;;;;12.43;65.41;94032.13;4983076;28;20029;-87
2023/04/26 00:07:02;;;;;;;1.92;0.88;;;;;;;12.43;64.99;94031.34;4998897;28;20026;-89
2023/04/26 00:09:28;;;;;;;1.83;0.98;;;;;;;12.24;66.24;94029.53;5000195;28;20030;-89
2023/04/26 00:11:54;;;;;;;1.63;0.80;;;;;;;12.76;64.16;94033.97;4982841;28;20033;-89
2023/04/26 00:14:19;;;;;;;1.30;0.82;;;;;;;12.62;64.30;94038.41;4982784;28;20022;-89
2023/04/26 00:16:45;;;;;;;2.67;1.10;;;;;;;12.60;66.22;94036.06;4998642;28;20161;-89
2023/04/26 00:19:11;;;;;;;1.52;0.90;;;;;;;12.20;70.38;94033.81;4998561;28;20030;-88
2023/04/26 00:21:37;;;;;;;1.70;1.00;;;;;;;12.29;69.86;94039.19;4998985;28;20029;-89
2023/04/26 00:24:04;;;;;;;2.45;1.13;;;;;;;12.13;70.58;94038.63;4997414;28;20418;-89
2023/04/26 00:26:29;;;;;;;0.98;0.73;;;;;;;11.93;73.55;94037.81;4998250;28;20336;-88
2023/04/26 00:28:55;;;;;;;1.35;1.00;;;;;;;11.96;74.43;94036.44;4998450;28;20033;-89
2023/04/26 00:31:20;;;;;;;1.83;1.00;;;;;;;11.72;71.25;94034.69;4999754;28;20486;-89
2023/04/26 00:33:45;;;;;;;3.50;1.00;;;;;;;11.49;74.17;94031.03;4998439;28;20027;-88
2023/04/26 00:36:12;;;;;;;1.88;0.80;;;;;;;12.02;72.27;94037.97;4982270;28;20121;-88
2023/04/26 00:38:37;;;;;;;3.63;1.25;;;;;;;11.87;71.76;94038.94;4998268;28;20336;-88
2023/04/26 00:41:02;;;;;;;2.95;1.10;;;;;;;11.53;74.98;94037.25;4982348;28;20022;-88
2023/04/26 00:43:28;;;;;;;2.85;1.23;;;;;;;11.33;71.74;94033.78;4998416;28;20022;-88
2023/04/26 00:45:53;;;;;;;3.65;1.20;;;;;;;11.63;73.53;94031.91;4998268;28;20428;-89
2023/04/26 00:48:19;;;;;;;3.72;1.27;;;;;;;11.66;69.00;94044.44;4981575;28;20030;-89
2023/04/26 00:50:46;;;;;;;1.42;0.82;;;;;;;11.81;66.13;94045.31;4982112;28;20332;-89
2023/04/26 00:53:13;;;;;;;2.00;0.80;;;;;;;11.94;71.11;94043.84;4982309;28;20053;-89
2023/04/26 00:55:40;;;;;;;2.13;0.80;;;;;;;11.92;70.36;94044.13;4981801;28;20034;-88
2023/04/26 00:58:05;;;;;;;4.63;1.15;;;;;;;11.73;72.46;94044.88;4998110;28;20072;-89
2023/04/26 01:00:31;;;;;;;2.92;1.33;;;;;;;11.74;72.02;94038.56;4999112;28;20034;-88
2023/04/26 01:02:57;;;;;;;4.43;1.10;;;;;;;11.41;73.97;94041.06;4981997;28;20077;-88
2023/04/26 01:05:22;;;;;;;5.72;1.10;;;;;;;11.45;74.33;94043.91;4997868;28;20018;-88
2023/04/26 01:07:48;;;;;;;1.85;0.90;;;;;;;11.48;73.56;94039.94;5000744;28;20021;-89
2023/04/26 01:10:13;;;;;;;1.45;0.90;;;;;;;11.42;73.07;94034.00;5016347;28;20029;-89
2023/04/26 01:12:39;;;;;;;3.45;0.98;;;;;;;10.99;79.21;94032.88;4991435;28;20034;-89
2023/04/26 01:15:05;;;;;;;4.47;1.08;;;;;;;11.29;75.90;94032.81;4997771;28;20033;-89
2023/04/26 01:17:30;;;;;;;4.55;1.08;;;;;;;11.37;72.99;94026.16;5008789;28;20028;-89
2023/04/26 01:19:56;;;;;;;1.42;0.95;;;;;;;11.46;72.52;94030.50;5018125;28;20025;-89
2023/04/26 01:22:21;;;;;;;1.10;0.88;;;;;;;11.55;70.32;94029.88;5000927;28;20018;-90
2023/04/26 01:24:50;;;;;;;1.98;1.00;;;;;;;11.64;73.12;94032.66;4993754;28;20186;-88
2023/04/26 01:27:16;;;;;;;0.85;0.75;;;;;;;11.31;74.38;94031.47;4997221;28;20339;-89
2023/04/26 01:29:42;;;;;;;1.75;0.93;;;;;;;11.58;75.00;94034.56;4997230;28;20109;-88
2023/04/26 01:32:07;;;;;;;2.15;1.25;;;;;;;11.57;69.77;94028.56;4981397;28;20080;-89
2023/04/26 01:34:33;;;;;;;1.50;0.90;;;;;;;11.49;71.04;94031.78;4995869;28;20069;-89
2023/04/26 01:36:59;;;;;;;1.55;0.80;;;;;;;11.60;71.04;94024.56;4997546;28;20069;-89
2023/04/26 01:39:25;;;;;;;0.77;0.70;;;;;;;11.62;73.03;94026.91;4997107;28;20109;-89
2023/04/26 01:41:50;;;;;;;5.18;1.10;;;;;;;11.15;76.63;94038.72;4998327;28;20057;-89
2023/04/26 01:44:16;;;;;;;1.50;0.90;;;;;;;11.00;76.28;94026.56;4997212;28;20036;-88
2023/04/26 01:46:41;;;;;;;2.63;0.90;;;;;;;11.22;74.71;94046.25;4998258;28;20057;-89
2023/04/26 01:49:07;;;;;;;1.55;0.85;;;;;;;11.26;71.98;94046.47;4980948;28;20023;-89
2023/04/26 01:51:33;;;;;;;1.60;1.13;;;;;;;10.94;74.53;94040.00;4997215;28;20028;-88
2023/04/26 01:53:58;;;;;;;1.58;1.00;;;;;;;10.90;76.31;94042.38;4997345;28;20026;-89
2023/04/26 01:56:24;;;;;;;2.47;1.13;;;;;;;11.00;76.03;94050.16;4998077;28;20080;-89
2023/04/26 01:58:49;;;;;;;1.45;1.08;;;;;;;11.12;73.02;94049.00;4996806;28;20355;-88
2023/04/26 02:01:15;;;;;;;3.20;1.20;;;;;;;11.35;71.51;94047.44;4998278;28;20417;-88
2023/04/26 02:03:40;;;;;;;2.90;0.95;;;;;;;11.44;70.05;94037.88;4996836;28;20034;-88
2023/04/26 02:06:06;;;;;;;1.60;0.90;;;;;;;11.51;69.47;94040.16;4996806;28;20045;-88
2023/04/26 02:08:31;;;;;;;1.95;1.00;;;;;;;11.52;68.92;94040.94;4996583;28;20038;-88
2023/04/26 02:10:57;;;;;;;2.20;0.85;;;;;;;11.44;73.21;94050.22;4996909;28;20356;-88
2023/04/26 02:13:22;;;;;;;7.53;0.98;;;;;;;11.39;71.77;94043.19;4980628;28;20041;-89
2023/04/26 02:15:49;;;;;;;3.05;0.88;;;;;;;11.53;70.63;94050.38;4996597;28;20109;-88
2023/04/26 02:18:14;;;;;;;2.25;1.17;;;;;;;11.43;72.66;94051.28;4996405;28;20452;-88
2023/04/26 02:20:44;;;;;;;3.10;0.88;;;;;;;11.66;71.75;94052.31;4996841;28;20038;-89
2023/04/26 02:23:10;;;;;;;1.27;1.00;;;;;;;11.55;70.13;94051.66;4997734;28;20045;-89
2023/04/26 02:25:36;;;;;;;4.78;1.40;;;;;;;11.56;69.72;94055.06;4980533;28;20491;-88
2023/04/26 02:28:03;;;;;;;2.80;1.30;;;;;;;11.50;68.41;94049.09;4996987;28;20034;-88
2023/04/26 02:30:29;;;;;;;1.33;1.00;;;;;;;11.51;67.67;94050.66;4980230;28;20037;-89
2023/04/26 02:32:55;;;;;;;1.40;1.00;;;;;;;11.62;67.22;94047.91;4996410;28;20064;-88
2023/04/26 02:35:21;;;;;;;5.63;1.13;;;;;;;11.67;69.58;94043.38;4996458;28;20101;-88
2023/04/26 02:37:51;;;;;;;3.65;1.00;;;;;;;11.51;70.65;94047.25;4995888;28;20035;-88
2023/04/26 02:40:17;;;;;;;1.40;1.10;;;;;;;11.61;72.51;94055.00;4981211;28;20026;-88
2023/04/26 02:42:42;;;;;;;1.33;1.00;;;;;;;11.44;71.27;94050.22;4996243;28;20030;-88
2023/04/26 02:45:08;;;;;;;1.20;0.90;;;;;;;11.56;71.50;94058.47;4996267;28;20032;-88
2023/04/26 02:47:35;;;;;;;1.13;0.90;;;;;;;11.46;71.96;94050.72;4998531;28;20048;-89
2023/04/26 02:50:02;;;;;;;5.65;0.98;;;;;;;11.37;72.11;94063.69;4984497;28;20034;-88
2023/04/26 02:52:28;;;;;;;2.20;1.02;;;;;;;10.83;76.39;94055.00;4986745;28;20030;-89
2023/04/26 02:54:53;;;;;;;2.65;1.08;;;;;;;10.75;77.96;94057.19;4999411;28;20038;-89
2023/04/26 02:57:19;;;;;;;4.13;0.93;;;;;;;10.99;73.42;94055.66;5013875;28;20425;-89
2023/04/26 02:59:44;;;;;;;2.22;1.13;;;;;;;10.86;72.97;94055.25;5016948;28;20029;-89
2023/04/26 03:02:09;;;;;;;3.05;1.00;;;;;;;10.92;72.28;94055.97;5019794;28;20037;-88
2023/04/26 03:04:35;;;;;;;3.90;1.05;;;;;;;10.87;74.64;94061.28;5019721;28;20033;-88
2023/04/26 03:07:03;;;;;;;2.63;1.27;;;;;;;10.96;75.14;94059.59;5019732;28;20025;-89
2023/04/26 03:09:29;;;;;;;2.60;1.02;;;;;;;10.84;73.75;94053.97;5019593;28;20335;-89
2023/04/26 03:11:55;;;;;;;3.83;1.05;;;;;;;11.15;69.97;94051.81;5019356;28;20032;-89
2023/04/26 03:14:20;;;;;;;1.45;0.93;;;;;;;11.34;68.54;94056.38;5020743;28;20026;-88
2023/04/26 03:16:47;;;;;;;3.47;1.08;;;;;;;11.37;67.88;94049.75;5019436;28;20037;-89
2023/04/26 03:19:13;;;;;;;1.80;1.20;;;;;;;11.35;67.37;94051.88;5020414;28;20030;-89
2023/04/26 03:21:38;;;;;;;1.48;1.02;;;;;;;11.50;66.45;94056.19;5003005;28;20095;-88
2023/04/26 03:24:04;;;;;;;3.88;1.00;;;;;;;11.31;68.54;94062.94;5002927;28;20038;-87
2023/04/26 03:26:29;;;;;;;2.25;0.88;;;;;;;11.62;66.23;94055.78;5019464;28;20033;-88
2023/04/26 03:28:55;;;;;;;6.20;1.02;;;;;;;11.60;66.43;94058.69;5019130;28;20026;-89
2023/04/26 03:31:21;;;;;;;2.83;1.20;;;;;;;11.79;63.93;94055.31;5020617;28;20065;-88
2023/04/26 03:33:47;;;;;;;1.80;0.95;;;;;;;11.86;63.52;94061.00;5019247;28;20120;-88
2023/04/26 03:36:12;;;;;;;1.23;0.77;;;;;;;11.82;64.33;94062.63;5002931;28;20494;-88
2023/04/26 03:38:37;;;;;;;0.88;0.70;;;;;;;11.64;65.01;94066.78;5019292;28;20036;-88
2023/04/26 03:41:03;;;;;;;1.15;0.90;;;;;;;11.44;67.95;94060.72;5019018;28;20026;-88
2023/04/26 03:43:28;;;;;;;0.80;0.70;;;;;;;11.05;78.97;94065.06;5020243;28;20026;-88
2023/04/26 03:45:54;;;;;;;1.13;0.90;;;;;;;10.97;73.28;94069.03;5018971;28;20304;-88
2023/04/26 03:48:19;;;;;;;1.20;0.90;;;;;;;11.01;72.08;94066.66;5020012;28;20084;-88
2023/04/26 03:50:45;;;;;;;1.15;0.85;;;;;;;11.08;73.28;94074.19;5018812;28;20438;-89
2023/04/26 03:53:10;;;;;;;1.70;1.02;;;;;;;11.13;71.62;94072.31;5018861;28;20026;-89
2023/04/26 03:55:36;;;;;;;1.90;1.00;;;;;;;11.21;69.13;94075.38;5002558;28;20030;-88
2023/04/26 03:58:03;;;;;;;1.27;0.80;;;;;;;11.14;69.06;94073.09;5002157;28;20029;-88
2023/04/26 04:00:28;;;;;;;2.75;1.00;;;;;;;11.13;70.02;94071.53;5018757;28;20026;-88
2023/04/26 04:02:54;;;;;;;2.33;1.08;;;;;;;11.21;70.78;94072.78;5019773;28;20391;-88
2023/04/26 04:05:19;;;;;;;5.03;0.90;;;;;;;11.07;71.39;94081.28;5002492;28;20077;-88
2023/04/26 04:07:45;;;;;;;2.25;0.95;;;;;;;11.10;67.67;94085.97;5002365;28;20416;-89
2023/04/26 04:10:10;;;;;;;4.38;1.10;;;;;;;11.38;63.61;94086.22;5002327;28;20036;-89
2023/04/26 04:12:36;;;;;;;1.70;0.90;;;;;;;11.35;64.84;94086.78;5018647;28;20465;-88
2023/04/26 04:15:02;;;;;;;4.50;1.27;;;;;;;11.57;63.11;94094.16;5019605;28;20034;-89
2023/04/26 04:17:27;;;;;;;2.90;1.25;;;;;;;11.62;63.53;94095.94;5001506;28;20045;-90
2023/04/26 04:19:53;;;;;;;1.98;0.90;;;;;;;11.65;62.76;94095.38;4997468;28;20431;-88
2023/04/26 04:22:18;;;;;;;2.70;1.17;;;;;;;11.69;61.79;94095.56;4994741;28;20033;-88
2023/04/26 04:24:43;;;;;;;2.67;1.10;;;;;;;11.73;61.53;94097.38;5002098;28;20124;-88
2023/04/26 04:27:09;;;;;;;1.73;1.00;;;;;;;11.80;60.96;94089.16;5018151;28;20030;-88
2023/04/26 04:29:35;;;;;;;1.50;0.88;;;;;;;11.83;61.00;94093.06;5001870;28;20037;-87
2023/04/26 04:32:01;;;;;;;2.17;0.88;;;;;;;11.85;61.19;94090.94;5019268;28;20057;-88
2023/04/26 04:34:26;;;;;;;2.22;0.95;;;;;;;11.90;60.50;94093.47;5001969;28;20032;-88
2023/04/26 04:37:14;;;;;;;1.63;0.75;;;;;;;12.32;59.62;94098.22;5006799;28;20113;-87
2023/04/26 04:39:39;;;;;;;1.70;0.85;;;;;;;11.80;61.79;94099.66;5003586;28;20042;-87
2023/04/26 04:42:05;;;;;;;1.63;0.80;;;;;;;11.88;59.63;94090.38;4982296;28;20034;-86
2023/04/26 04:44:31;;;;;;;1.92;0.90;;;;;;;11.92;59.36;94106.34;4982008;28;20038;-87
2023/04/26 04:46:57;;;;;;;9.70;1.05;;;;;;;11.93;58.65;94106.06;4999469;28;20392;-87
2023/04/26 04:49:23;;;;;;;1.33;0.70;;;;;;;12.32;58.15;94108.75;4997996;28;20064;-86
2023/04/26 04:51:49;;;;;;;5.35;0.90;;;;;;;12.20;59.50;94106.53;4999204;28;20502;-87
2023/04/26 04:54:16;;;;;;;1.70;0.80;;;;;;;12.26;58.94;94106.19;4982321;28;20080;-87
2023/04/26 04:56:43;;;;;;;6.30;0.90;;;;;;;12.15;59.73;94117.88;4997831;28;20068;-88
2023/04/26 04:59:08;;;;;;;1.15;0.90;;;;;;;12.07;60.52;94114.06;4982008;28;20034;-87
2023/04/26 05:01:35;;;;;;;3.25;0.93;;;;;;;11.71;63.74;94115.22;4999302;28;20056;-87
2023/04/26 05:04:01;;;;;;;4.13;0.77;;;;;;;11.71;66.48;94112.63;4998354;28;20106;-88
2023/04/26 05:06:27;;;;;;;3.42;1.10;;;;;;;11.94;62.82;94118.13;4981828;28;20038;-87
2023/04/26 05:08:53;;;;;;;1.67;0.70;;;;;;;12.12;61.40;94123.72;4997930;28;20069;-90
2023/04/26 05:11:18;;;;;;;4.95;1.02;;;;;;;11.94;65.63;94131.25;4997175;28;20445;-90
2023/04/26 05:13:45;;;;;;;1.60;0.70;;;;;;;12.13;70.11;94125.28;4997661;28;20110;-90
2023/04/26 05:16:11;;;;;;;1.45;0.90;;;;;;;12.27;73.98;94133.25;4981556;28;20038;-91
2023/04/26 05:18:36;;;;;;;1.80;0.90;;;;;;;12.37;68.68;94138.34;4981368;28;20034;-91
2023/04/26 05:21:02;;;;;;;2.35;1.10;;;;;;;12.27;65.46;94135.88;4997703;28;20034;-90
2023/04/26 05:23:27;;;;;;;1.33;0.80;;;;;;;12.41;67.88;94142.00;4981408;28;20120;-90
2023/04/26 05:25:53;;;;;;;1.38;0.85;;;;;;;12.59;70.16;94145.66;4980969;28;20045;-89
2023/04/26 05:28:18;;;;;;;2.08;0.93;;;;;;;12.37;66.92;94146.22;4983113;28;20447;-90
2023/04/26 05:30:45;;;;;;;2.08;0.90;;;;;;;12.77;74.23;94160.94;5000874;28;20030;-90
2023/04/26 05:33:10;;;;;;;2.95;1.10;;;;;;;12.69;69.88;94157.09;5016736;28;20498;-86
2023/04/26 05:35:41;;;;;;;2.88;0.80;;;;;;;13.14;64.16;94164.59;5016880;28;20041;-87
2023/04/26 05:38:06;;;;;;;0.95;0.80;;;;;;;12.81;63.80;94157.44;5016720;28;20021;-86
2023/04/26 05:40:31;;;;;;;1.90;0.90;;;;;;;12.75;62.07;94163.06;5016557;28;20343;-87
2023/04/26 05:42:57;;;;;;;3.30;1.40;;;;;;;13.35;61.38;94162.41;5017993;28;20025;-87
2023/04/26 05:45:22;;;;;;;5.32;1.10;;;;;;;13.75;62.04;94166.44;5000590;28;20176;-89
2023/04/26 05:47:48;;;;;;;3.03;0.90;;;;;;;14.03;61.50;94172.53;5001074;28;20459;-89
2023/04/26 05:50:13;;;;;;;5.47;1.10;;;;;;;14.19;59.97;94161.69;4997054;28;20041;-89
2023/04/26 05:52:39;;;;;;;3.72;1.33;;;;;;;14.44;59.30;94165.63;4997080;28;20414;-89
2023/04/26 05:55:05;;;;;;;3.58;0.77;;;;;;;14.52;59.39;94172.06;4980953;28;20039;-89
2023/04/26 05:57:31;;;;;;;1.15;0.90;;;;;;;14.63;59.08;94164.69;4996896;28;20490;-89
2023/04/26 05:59:56;;;;;;;1.30;0.70;;;;;;;14.48;60.86;94166.59;4996843;28;20030;-89
2023/04/26 06:02:22;;;;;;;2.20;0.73;;;;;;;14.67;60.20;94168.31;4996882;28;20030;-89
2023/04/26 06:04:47;;;;;;;2.97;1.10;;;;;;;14.38;60.10;94169.47;4982195;28;20025;-89
2023/04/26 06:07:13;;;;;;;1.13;0.70;;;;;;;14.61;59.55;94172.91;5000205;28;20342;-89
2023/04/26 06:09:38;;;;;;;2.22;0.95;;;;;;;14.97;56.94;94176.66;5016302;28;20026;-89
2023/04/26 06:12:04;;;;;;;1.38;0.80;;;;;;;14.99;61.65;94174.47;5016408;28;20060;-89
2023/04/26 06:14:30;;;;;;;2.47;0.90;;;;;;;15.04;58.62;94187.53;5000195;28;20378;-89
2023/04/26 06:17:18;;;;;;;1.42;0.75;;;;;;;15.41;59.64;94185.63;5016194;28;20029;-89
2023/04/26 06:19:43;;;;;;;1.65;0.93;;;;;;;15.14;58.88;94181.28;5017244;28;20432;-89
2023/04/26 06:22:09;;;;;;;1.60;0.80;;;;;;;15.20;58.40;94179.25;4999956;28;20029;-89
2023/04/26 06:24:34;;;;;;;1.80;1.00;;;;;;;15.24;57.09;94175.72;5016369;28;20026;-89
2023/04/26 06:27:00;;;;;;;1.88;0.95;;;;;;;15.36;57.16;94184.97;5016123;28;20026;-89
2023/04/26 06:29:25;;;;;;;3.17;0.77;;;;;;;15.30;56.43;94186.94;5000199;28;20030;-88
2023/04/26 06:31:51;;;;;;;2.38;0.82;;;;;;;15.35;57.99;94188.69;5016237;28;20038;-89
2023/04/26 06:34:16;;;;;;;4.43;0.75;;;;;;;15.12;61.56;94199.25;5016091;28;20029;-89
2023/04/26 06:36:41;;;;;;;1.88;1.00;;;;;;;15.38;58.11;94210.00;5015993;28;20034;-89
2023/04/26 06:39:07;;;;;;;1.90;1.10;;;;;;;15.55;58.03;94200.59;5015831;28;20034;-89
2023/04/26 06:41:32;;;;;;;3.08;0.90;;;;;;;15.67;58.07;94203.47;5016220;28;20120;-88
2023/04/26 06:43:58;;;;;;;2.42;0.85;;;;;;;15.47;54.93;94210.03;5017122;28;20395;-89
2023/04/26 06:46:23;;;;;;;1.05;0.60;;;;;;;15.79;55.68;94210.06;5015822;28;20026;-89
2023/04/26 06:48:48;;;;;;;6.53;1.10;;;;;;;15.81;54.92;94215.81;5017241;28;20069;-89
2023/04/26 06:51:14;;;;;;;0.95;0.82;;;;;;;16.03;54.14;94217.66;5015879;28;20084;-89
2023/04/26 06:53:40;;;;;;;1.83;0.70;;;;;;;15.91;54.54;94220.84;5017072;28;20034;-88
2023/04/26 06:56:06;;;;;;;2.78;0.98;;;;;;;16.17;54.40;94224.69;5015803;28;20388;-89
2023/04/26 06:58:31;;;;;;;1.63;0.82;;;;;;;16.11;55.51;94227.44;5015728;28;20113;-89
2023/04/26 07:00:56;;;;;;;2.63;0.80;;;;;;;16.46;55.25;94234.72;5015919;28;20034;-89
2023/04/26 07:03:22;;;;;;;1.30;0.70;;;;;;;16.67;56.12;94226.22;5015757;28;20120;-88
2023/04/26 07:05:47;;;;;;;1.85;0.77;;;;;;;16.59;58.18;94230.41;4999621;28;20113;-89
2023/04/26 07:08:13;;;;;;;1.05;0.73;;;;;;;16.80;63.92;94235.09;5015629;28;20466;-89
2023/04/26 07:10:39;;;;;;;1.85;1.00;;;;;;;16.63;58.66;94231.34;4999523;28;20029;-89
2023/04/26 07:13:04;;;;;;;3.03;0.77;;;;;;;16.97;58.07;94229.03;5015787;28;20469;-89
2023/04/26 07:15:30;;;;;;;2.70;0.80;;;;;;;16.98;60.98;94233.25;5015569;28;20072;-89
2023/04/26 07:17:56;;;;;;;8.30;1.10;;;;;;;17.12;64.63;94235.75;5015301;28;20041;-89
2023/04/26 07:20:23;;;;;;;3.53;1.10;;;;;;;17.23;60.54;94230.94;5015605;28;20447;-89
2023/04/26 07:22:48;;;;;;;2.75;1.15;;;;;;;17.21;58.10;94223.28;5015660;28;20029;-89
2023/04/26 07:25:14;;;;;;;2.72;1.08;;;;;;;17.30;56.93;94225.16;4999415;28;20423;-89
2023/04/26 07:27:39;;;;;;;2.90;1.08;;;;;;;17.19;59.42;94212.25;5015595;28;20026;-89
2023/04/26 07:30:05;;;;;;;4.28;1.45;;;;;;;17.15;57.03;94221.13;5015380;28;20034;-89
2023/04/26 07:32:30;;;;;;;3.40;1.13;;;;;;;17.38;57.63;94217.22;5015992;28;20045;-89
2023/04/26 07:34:56;;;;;;;6.90;0.98;;;;;;;17.58;55.95;94211.56;5019054;28;20120;-89
2023/04/26 07:37:22;;;;;;;2.33;1.10;;;;;;;17.61;54.01;94213.59;5003015;28;20064;-88
2023/04/26 07:39:47;;;;;;;4.30;1.27;;;;;;;17.64;53.50;94211.06;5003249;28;20132;-88
2023/04/26 07:42:12;;;;;;;1.95;1.13;;;;;;;17.64;53.70;94211.06;5019469;28;20439;-91
2023/04/26 07:44:38;;;;;;;2.60;1.05;;;;;;;17.49;56.10;94212.38;5002912;28;20030;-91
2023/04/26 07:47:03;;;;;;;1.48;1.00;;;;;;;17.88;55.78;94215.06;5002683;28;20026;-91
2023/04/26 07:49:29;;;;;;;1.40;0.93;;;;;;;17.52;51.70;94216.25;5020044;28;20084;-91
2023/04/26 07:51:55;;;;;;;3.35;0.88;;;;;;;17.86;52.68;94219.91;5018924;28;20052;-91
2023/04/26 07:54:20;;;;;;;2.85;0.70;;;;;;;17.80;53.04;94215.88;5002832;28;20026;-91
2023/04/26 07:56:46;;;;;;;4.50;1.00;;;;;;;17.88;52.12;94215.06;5002652;28;20037;-91
2023/04/26 07:59:11;;;;;;;2.85;0.75;;;;;;;17.90;54.90;94217.41;5018630;28;20045;-91
2023/04/26 08:01:37;;;;;;;1.75;0.80;;;;;;;18.04;53.08;94218.00;5019884;28;20036;-91
2023/04/26 08:04:04;;;;;;;1.17;0.70;;;;;;;17.95;50.51;94212.72;5018745;28;20040;-91
2023/04/26 08:06:30;;;;;;;1.73;1.20;;;;;;;18.03;51.04;94215.66;5002578;28;20025;-92
2023/04/26 08:08:55;;;;;;;1.75;1.05;;;;;;;17.71;52.60;94223.81;5002461;28;20327;-91
2023/04/26 08:11:21;;;;;;;1.05;0.73;;;;;;;18.39;52.42;94225.03;5019705;28;20036;-92
2023/04/26 08:13:46;;;;;;;2.00;1.17;;;;;;;18.13;50.13;94225.91;5018411;28;20048;-91
2023/04/26 08:16:12;;;;;;;1.90;0.90;;;;;;;18.43;50.00;94228.59;5002625;28;20030;-91
2023/04/26 08:18:37;;;;;;;3.33;1.02;;;;;;;18.09;50.81;94228.41;5018234;28;20034;-91
2023/04/26 08:21:03;;;;;;;1.20;0.80;;;;;;;17.87;50.95;94232.06;5002534;28;20100;-92
2023/04/26 08:23:33;;;;;;;2.33;1.10;;;;;;;18.44;51.64;94237.34;5002127;28;20391;-91
2023/04/26 08:25:59;;;;;;;1.58;0.85;;;;;;;18.31;52.24;94237.22;5002333;28;20053;-91
2023/04/26 08:28:24;;;;;;;3.22;1.20;;;;;;;18.53;50.90;94239.94;5002255;28;20128;-91
2023/04/26 08:30:49;;;;;;;1.52;1.00;;;;;;;18.44;50.89;94242.63;4998739;28;20081;-91
2023/04/26 08:33:16;;;;;;;1.65;1.08;;;;;;;18.61;49.42;94242.53;4982570;28;20026;-91
2023/04/26 08:35:42;;;;;;;2.03;1.00;;;;;;;17.97;50.72;94248.72;4982470;28;20031;-91
2023/04/26 08:38:07;;;;;;;3.95;0.95;;;;;;;18.13;50.41;94246.34;4982608;28;20061;-91
2023/04/26 08:40:33;;;;;;;1.48;0.80;;;;;;;18.51;52.92;94248.19;4998293;28;20030;-91
2023/04/26 08:42:58;;;;;;;1.20;0.90;;;;;;;19.24;52.08;94249.00;4998496;28;20462;-90
2023/04/26 08:45:23;;;;;;;1.90;1.00;;;;;;;19.34;53.72;94242.50;4981191;28;20053;-91
2023/04/26 08:47:52;;;;;;;1.10;0.73;;;;;;;19.62;51.14;94256.00;4982102;28;20022;-91
2023/04/26 08:50:19;;;;;;;3.90;0.93;;;;;;;19.32;49.36;94256.09;4998278;28;20432;-91
2023/04/26 08:52:47;;;;;;;1.38;0.80;;;;;;;19.20;50.18;94248.09;4998402;28;20088;-91
2023/04/26 08:55:15;;;;;;;2.78;1.00;;;;;;;19.30;48.44;94253.00;4998222;28;20124;-92
2023/04/26 08:57:42;;;;;;;1.15;0.70;;;;;;;19.57;50.60;94245.59;4998250;28;20025;-91
2023/04/26 09:00:12;;;;;;;3.13;1.17;;;;;;;20.00;53.30;94251.56;4981774;28;20022;-91
2023/04/26 09:02:40;;;;;;;1.67;0.95;;;;;;;19.38;47.58;94248.72;4998041;28;20029;-92
2023/04/26 09:05:06;;;;;;;2.95;1.58;;;;;;;19.42;45.84;94246.97;4981991;28;20431;-92
2023/04/26 09:07:41;;;;;;;2.92;1.27;;;;;;;19.00;48.01;94239.00;5014551;28;20045;-91
2023/04/26 09:10:09;;;;;;;2.60;1.30;;;;;;;18.99;47.79;94235.59;4982592;28;20059;-91
2023/04/26 09:12:35;;;;;;;2.72;1.20;;;;;;;19.42;51.41;94240.88;4982091;28;20069;-91
2023/04/26 09:15:00;;;;;;;1.50;0.88;;;;;;;19.90;48.02;94239.47;4981734;28;20424;-91
2023/04/26 09:17:29;;;;;;;3.30;1.08;;;;;;;19.64;44.26;94242.41;4981672;28;20117;-91
2023/04/26 09:19:55;;;;;;;3.22;1.20;;;;;;;19.47;45.99;94244.13;4981413;28;20352;-92
2023/04/26 09:22:32;;;;;;;2.53;1.00;;;;;;;20.38;46.52;94238.31;4981913;28;20026;-92
2023/04/26 09:24:58;;;;;;;3.30;1.00;;;;;;;20.18;46.15;94236.19;5001522;28;20076;-89
2023/04/26 09:27:33;;;;;;;2.05;1.10;;;;;;;20.27;50.25;94236.09;4988816;28;20061;-88
2023/04/26 09:30:09;;;;;;;1.20;0.80;;;;;;;19.74;45.97;94235.88;4991831;28;20077;-89
2023/04/26 09:32:58;;;;;;;3.00;0.98;;;;;;;20.29;47.34;94239.19;5012544;28;20026;-88
2023/04/26 09:35:37;;;;;;;1.67;0.80;;;;;;;20.52;51.60;94238.75;5004833;28;20026;-88
2023/04/26 09:38:05;;;;;;;1.48;0.90;;;;;;;20.65;47.63;94241.41;4997238;28;20105;-88
2023/04/26 09:40:37;;;;;;;2.75;1.05;;;;;;;20.32;47.77;94235.09;4997263;28;20092;-89
2023/04/26 09:43:05;;;;;;;1.52;0.80;;;;;;;20.56;43.23;94236.97;4998080;28;20041;-88
2023/04/26 09:45:33;;;;;;;4.05;0.88;;;;;;;20.71;43.98;94240.84;4997194;28;20022;-88
2023/04/26 09:48:17;;;;;;;4.18;1.13;;;;;;;20.45;42.57;94236.66;4981049;28;20037;-88
2023/04/26 09:50:45;;;;;;;1.25;0.70;;;;;;;20.53;42.84;94232.31;4998189;28;20320;-89
2023/04/26 09:53:11;;;;;;;2.60;0.77;;;;;;;20.13;41.23;94225.00;4997493;28;20054;-93
2023/04/26 09:55:37;;;;;;;6.85;0.82;;;;;;;20.74;43.82;94226.88;4980603;28;20026;-88
2023/04/26 09:58:09;;;;;;;2.13;0.70;;;;;;;20.66;43.64;94225.13;4994573;28;20041;-88
2023/04/26 10:00:37;;;;;;;1.87;0.80;;;;;;;21.11;43.17;94230.59;4997119;28;20458;-88
2023/04/26 10:03:03;;;;;;;0.82;0.68;;;;;;;21.02;40.83;94217.41;4996891;28;20277;-88
2023/04/26 10:05:28;;;;;;;0.98;0.50;;;;;;;21.17;46.15;94221.25;4980598;28;20030;-88
2023/04/26 10:07:54;;;;;;;2.03;0.80;;;;;;;21.08;43.93;94224.03;4996451;28;20329;-89
2023/04/26 10:10:20;;;;;;;1.70;0.80;;;;;;;20.97;45.15;94221.09;4996730;28;20424;-88
2023/04/26 10:12:46;;;;;;;4.25;0.90;;;;;;;21.39;42.08;94227.16;4980537;28;20333;-88
2023/04/26 10:15:11;;;;;;;1.42;0.70;;;;;;;21.14;39.76;94217.34;4980410;28;20093;-88
2023/04/26 10:17:38;;;;;;;2.67;0.60;;;;;;;21.58;41.75;94213.97;4996698;28;20026;-88
2023/04/26 10:20:06;;;;;;;0.65;0.52;;;;;;;21.70;38.67;94210.47;4996468;28;20034;-89
2023/04/26 10:22:36;;;;;;;3.90;0.70;;;;;;;21.82;39.37;94219.53;4996564;28;20095;-88
2023/04/26 10:25:02;;;;;;;1.27;0.90;;;;;;;21.00;43.56;94207.09;4996598;28;20026;-88
2023/04/26 10:27:43;;;;;;;2.15;0.80;;;;;;;21.36;38.99;94211.84;4996785;28;20033;-88
2023/04/26 10:30:12;;;;;;;2.97;0.60;;;;;;;20.25;39.66;94210.94;4997329;28;20503;-88
2023/04/26 10:32:56;;;;;;;2.90;0.80;;;;;;;21.26;40.33;94211.22;5012663;28;20026;-89
2023/04/26 10:35:23;;;;;;;2.08;1.00;;;;;;;20.41;39.85;94219.03;4997250;28;20352;-89
2023/04/26 10:38:07;;;;;;;3.60;0.95;;;;;;;21.60;39.29;94222.38;4996063;28;20054;-89
2023/04/26 10:40:38;;;;;;;2.33;0.80;;;;;;;21.95;40.09;94205.00;4996601;28;20033;-88
2023/04/26 10:43:13;;;;;;;6.13;0.95;;;;;;;22.10;37.86;94216.81;4996344;28;20027;-88
2023/04/26 10:45:40;;;;;;;0.82;0.75;;;;;;;21.63;38.35;94212.16;4997143;28;20019;-88
2023/04/26 10:48:21;;;;;;;1.45;0.65;;;;;;;21.85;37.98;94214.28;4996415;28;20080;-88
2023/04/26 10:51:00;;;;;;;5.22;1.02;;;;;;;22.10;38.67;94205.34;5012653;28;20101;-89
2023/04/26 10:53:45;;;;;;;1.98;0.80;;;;;;;22.54;38.88;94210.56;5012533;28;20030;-88
2023/04/26 10:56:31;;;;;;;2.80;0.93;;;;;;;22.08;34.37;94207.59;4989080;28;20045;-89
2023/04/26 10:59:10;;;;;;;1.42;0.57;;;;;;;22.07;33.77;94206.03;5012197;28;20065;-88
2023/04/26 11:01:36;;;;;;;2.45;0.90;;;;;;;22.09;36.90;94207.22;4996209;28;20458;-88
2023/04/26 11:04:07;;;;;;;0.88;0.52;;;;;;;22.29;38.12;94205.41;4996230;28;20126;-89
2023/04/26 11:06:51;;;;;;;2.95;0.60;;;;;;;21.96;37.60;94205.78;4996148;28;20468;-89
2023/04/26 11:09:39;;;;;;;4.10;1.00;;;;;;;21.73;37.73;94207.16;5000379;28;20034;-88
2023/04/26 11:12:12;;;;;;;2.70;0.70;;;;;;;22.12;39.10;94197.78;5000009;28;20038;-88
2023/04/26 11:14:40;;;;;;;1.95;0.85;;;;;;;22.56;38.92;94194.22;5000218;28;20022;-88
2023/04/26 11:17:07;;;;;;;2.10;0.93;;;;;;;21.75;36.34;94202.25;4999877;28;20029;-87
2023/04/26 11:19:32;;;;;;;1.05;0.73;;;;;;;21.79;38.07;94191.66;4999630;28;20033;-88
2023/04/26 11:21:59;;;;;;;0.98;0.60;;;;;;;22.57;37.63;94182.41;4983806;28;20022;-88
2023/04/26 11:24:30;;;;;;;2.00;1.10;;;;;;;22.79;37.06;94186.31;4999779;28;20030;-88
2023/04/26 11:26:56;;;;;;;3.63;0.70;;;;;;;21.89;38.30;94191.16;4999699;28;20080;-89
2023/04/26 11:29:22;;;;;;;4.32;0.80;;;;;;;22.24;37.47;94183.56;4983449;28;20080;-88
2023/04/26 11:31:55;;;;;;;5.07;1.00;;;;;;;22.51;37.18;94181.91;4999798;28;20428;-89
2023/04/26 11:34:32;;;;;;;2.78;0.95;;;;;;;22.19;38.27;94181.94;4999836;28;20037;-89